createdAt,value
2018-11-04T00:00:56.134Z,3.10
2018-11-04T00:03:24.744Z,3.10
2018-11-04T00:05:53.239Z,3.10
2018-11-04T00:08:21.544Z,3.10
2018-11-04T00:10:49.815Z,3.00
2018-11-04T00:13:18.227Z,3.00
2018-11-04T00:15:46.503Z,3.00
2018-11-04T00:18:14.853Z,3.00
2018-11-04T00:20:43.156Z,3.00
2018-11-04T00:23:11.421Z,2.90
2018-11-04T00:25:39.714Z,2.90
2018-11-04T00:28:08.012Z,2.90
2018-11-04T00:30:36.346Z,2.90
2018-11-04T00:33:04.701Z,2.90
2018-11-04T00:35:33.109Z,2.90
2018-11-04T00:38:01.384Z,2.80
2018-11-04T00:40:29.651Z,2.80
2018-11-04T00:42:57.980Z,2.80
2018-11-04T00:45:26.316Z,2.80
2018-11-04T00:47:54.645Z,2.80
2018-11-04T00:50:22.926Z,2.70
2018-11-04T00:52:51.360Z,2.70
2018-11-04T00:55:19.640Z,2.70
2018-11-04T00:57:47.900Z,2.70
2018-11-04T01:00:17.885Z,2.70
2018-11-04T01:02:47.279Z,2.70
2018-11-04T01:05:16.062Z,2.70
2018-11-04T01:07:44.346Z,2.60
2018-11-04T01:10:13.070Z,2.60
2018-11-04T01:12:42.014Z,2.60
2018-11-04T01:15:11.823Z,2.60
2018-11-04T01:17:40.537Z,2.50
2018-11-04T01:20:10.628Z,2.50
2018-11-04T01:22:38.977Z,2.50
2018-11-04T01:25:07.458Z,2.50
2018-11-04T01:27:35.741Z,2.50
2018-11-04T01:30:04.363Z,2.50
2018-11-04T01:32:32.660Z,2.50
2018-11-04T01:35:00.981Z,2.50
2018-11-04T01:37:29.222Z,2.50
2018-11-04T01:39:57.656Z,2.40
2018-11-04T01:42:25.905Z,2.40
2018-11-04T01:44:54.184Z,2.40
2018-11-04T01:47:22.473Z,2.40
2018-11-04T01:49:50.720Z,2.40
2018-11-04T01:52:19.028Z,2.40
2018-11-04T01:54:47.355Z,2.40
2018-11-04T01:57:15.743Z,2.40
2018-11-04T01:59:44.046Z,2.40
2018-11-04T02:02:12.371Z,2.30
2018-11-04T02:04:40.687Z,2.30
2018-11-04T02:07:08.937Z,2.30
2018-11-04T02:09:37.288Z,2.30
2018-11-04T02:12:06.354Z,2.30
2018-11-04T02:14:34.674Z,2.30
2018-11-04T02:17:02.944Z,2.30
2018-11-04T02:19:31.850Z,2.30
2018-11-04T02:22:00.243Z,2.30
2018-11-04T02:24:28.527Z,2.30
2018-11-04T02:26:56.867Z,2.30
2018-11-04T02:29:25.148Z,2.30
2018-11-04T02:31:53.442Z,2.20
2018-11-04T02:34:21.864Z,2.20
2018-11-04T02:36:50.127Z,2.20
2018-11-04T02:39:18.503Z,2.20
2018-11-04T02:41:46.815Z,2.20
2018-11-04T02:44:15.225Z,2.20
2018-11-04T02:46:43.533Z,2.20
2018-11-04T02:49:11.798Z,2.20
2018-11-04T02:51:40.179Z,2.20
2018-11-04T02:54:08.469Z,2.20
2018-11-04T02:56:36.839Z,2.20
2018-11-04T02:59:05.404Z,2.10
2018-11-04T03:01:33.710Z,2.10
2018-11-04T03:04:02.105Z,2.10
2018-11-04T03:06:30.388Z,2.10
2018-11-04T03:08:58.649Z,2.10
2018-11-04T03:11:26.928Z,2.10
2018-11-04T03:13:55.285Z,2.10
2018-11-04T03:16:23.562Z,2.10
2018-11-04T03:18:51.880Z,2.10
2018-11-04T03:21:20.272Z,2.10
2018-11-04T03:23:48.577Z,2.10
2018-11-04T03:26:16.938Z,2.10
2018-11-04T03:28:45.226Z,2.10
2018-11-04T03:31:13.641Z,2.10
2018-11-04T03:33:41.947Z,2.00
2018-11-04T03:36:10.217Z,2.00
2018-11-04T03:38:38.456Z,1.80
2018-11-04T03:41:06.980Z,1.80
2018-11-04T03:43:35.372Z,1.90
2018-11-04T03:46:03.697Z,1.90
2018-11-04T03:48:32.034Z,1.90
2018-11-04T03:51:00.324Z,1.90
2018-11-04T03:53:28.619Z,1.80
2018-11-04T03:55:57.043Z,1.80
2018-11-04T03:58:25.319Z,1.80
2018-11-04T04:00:53.672Z,1.80
2018-11-04T04:03:21.993Z,1.90
2018-11-04T04:05:50.443Z,1.90
2018-11-04T04:08:18.722Z,1.80
2018-11-04T04:10:47.017Z,1.80
2018-11-04T04:13:16.385Z,1.70
2018-11-04T04:15:44.666Z,1.80
2018-11-04T04:18:13.071Z,1.80
2018-11-04T04:20:41.867Z,1.70
2018-11-04T04:23:10.208Z,1.80
2018-11-04T04:25:38.568Z,1.80
2018-11-04T04:28:07.093Z,1.70
2018-11-04T04:30:35.478Z,1.70
2018-11-04T04:33:03.767Z,1.70
2018-11-04T04:35:32.065Z,1.70
2018-11-04T04:38:00.434Z,1.70
2018-11-04T04:40:28.718Z,1.80
2018-11-04T04:42:57.122Z,1.70
2018-11-04T04:45:25.417Z,1.80
2018-11-04T04:47:53.828Z,1.80
2018-11-04T04:50:22.107Z,1.80
2018-11-04T04:52:50.427Z,1.80
2018-11-04T04:55:19.748Z,1.70
2018-11-04T04:57:48.016Z,1.70
2018-11-04T05:00:16.426Z,1.70
2018-11-04T05:02:44.685Z,1.70
2018-11-04T05:05:12.991Z,1.70
2018-11-04T05:07:41.447Z,1.80
2018-11-04T05:10:09.731Z,1.70
2018-11-04T05:12:38.078Z,1.80
2018-11-04T05:15:07.503Z,1.80
2018-11-04T05:17:35.856Z,1.80
2018-11-04T05:20:04.321Z,1.90
2018-11-04T05:22:32.613Z,1.90
2018-11-04T05:25:01.106Z,1.90
2018-11-04T05:27:29.407Z,2.00
2018-11-04T05:29:57.700Z,1.90
2018-11-04T05:32:26.007Z,2.00
2018-11-04T05:34:54.325Z,2.00
2018-11-04T05:37:22.658Z,2.00
2018-11-04T05:39:50.949Z,2.10
2018-11-04T05:42:19.303Z,2.10
2018-11-04T05:44:47.600Z,2.20
2018-11-04T05:47:15.898Z,2.30
2018-11-04T05:49:44.219Z,2.30
2018-11-04T05:52:12.489Z,2.30
2018-11-04T05:54:40.775Z,2.40
2018-11-04T05:57:09.035Z,2.40
2018-11-04T05:59:37.447Z,2.50
2018-11-04T06:02:06.267Z,2.50
2018-11-04T06:04:34.529Z,2.60
2018-11-04T06:07:02.815Z,2.70
2018-11-04T06:09:31.102Z,2.70
2018-11-04T06:11:59.447Z,2.70
2018-11-04T06:14:27.727Z,2.80
2018-11-04T06:16:56.020Z,2.80
2018-11-04T06:19:24.330Z,2.80
2018-11-04T06:21:52.610Z,2.90
2018-11-04T06:24:20.887Z,3.00
2018-11-04T06:26:49.167Z,3.00
2018-11-04T06:29:17.484Z,3.00
2018-11-04T06:31:45.789Z,3.10
2018-11-04T06:34:14.118Z,3.20
2018-11-04T06:36:42.402Z,3.30
2018-11-04T06:39:10.682Z,3.30
2018-11-04T06:41:39.180Z,3.40
2018-11-04T06:44:07.962Z,3.40
2018-11-04T06:46:36.362Z,3.40
2018-11-04T06:49:04.854Z,3.50
2018-11-04T06:51:33.184Z,3.60
2018-11-04T06:54:01.475Z,3.70
2018-11-04T06:56:29.821Z,3.80
2018-11-04T06:58:58.118Z,3.80
2018-11-04T07:01:26.432Z,3.90
2018-11-04T07:04:06.176Z,4.00
2018-11-04T07:06:34.466Z,4.00
2018-11-04T07:09:02.885Z,4.10
2018-11-04T07:11:31.074Z,4.10
2018-11-04T07:13:59.352Z,4.10
2018-11-04T07:16:27.623Z,4.20
2018-11-04T07:18:55.940Z,4.30
2018-11-04T07:21:24.203Z,4.30
2018-11-04T07:23:52.489Z,4.40
2018-11-04T07:26:20.784Z,4.50
2018-11-04T07:28:49.102Z,4.60
2018-11-04T07:31:17.383Z,4.60
2018-11-04T07:33:45.677Z,4.60
2018-11-04T07:36:13.939Z,4.70
2018-11-04T07:38:42.245Z,4.90
2018-11-04T07:41:10.538Z,4.90
2018-11-04T07:43:38.846Z,5.00
2018-11-04T07:46:07.233Z,5.10
2018-11-04T07:48:35.522Z,5.20
2018-11-04T07:51:03.866Z,5.20
2018-11-04T07:53:32.119Z,5.30
2018-11-04T07:56:00.434Z,5.40
2018-11-04T07:58:28.721Z,5.50
2018-11-04T08:00:57.159Z,5.50
2018-11-04T08:03:25.352Z,5.60
2018-11-04T08:05:53.728Z,5.60
2018-11-04T08:08:21.966Z,5.70
2018-11-04T08:10:50.255Z,5.80
2018-11-04T08:13:18.554Z,5.80
2018-11-04T08:15:46.830Z,5.90
2018-11-04T08:18:15.098Z,6.00
2018-11-04T08:20:43.360Z,6.00
2018-11-04T08:23:11.629Z,6.10
2018-11-04T08:25:39.898Z,6.20
2018-11-04T08:28:08.682Z,6.30
2018-11-04T08:30:36.976Z,6.40
2018-11-04T08:33:05.699Z,6.50
2018-11-04T08:35:34.077Z,6.60
2018-11-04T08:38:02.614Z,6.70
2018-11-04T08:40:31.011Z,6.70
2018-11-04T08:42:59.476Z,6.90
2018-11-04T08:45:27.750Z,7.00
2018-11-04T08:47:56.027Z,7.10
2018-11-04T08:50:24.312Z,7.20
2018-11-04T08:52:52.585Z,7.30
2018-11-04T08:55:20.876Z,7.30
2018-11-04T08:57:49.165Z,7.40
2018-11-04T09:00:17.651Z,7.40
2018-11-04T09:02:45.819Z,7.50
2018-11-04T09:05:14.105Z,7.60
2018-11-04T09:07:42.394Z,7.70
2018-11-04T09:10:13.788Z,7.80
2018-11-04T09:12:42.594Z,7.90
2018-11-04T09:15:11.468Z,7.90
2018-11-04T09:17:39.782Z,8.00
2018-11-04T09:20:10.591Z,7.90
2018-11-04T09:22:39.395Z,8.00
2018-11-04T09:25:08.874Z,8.10
2018-11-04T09:27:37.164Z,8.20
2018-11-04T09:30:07.555Z,8.30
2018-11-04T09:32:35.851Z,8.30
2018-11-04T09:35:04.548Z,8.30
2018-11-04T09:37:32.755Z,8.30
2018-11-04T09:40:01.049Z,8.40
2018-11-04T09:42:29.347Z,8.50
2018-11-04T09:44:57.684Z,8.50
2018-11-04T09:47:25.980Z,8.60
2018-11-04T09:49:54.339Z,8.70
2018-11-04T09:52:22.573Z,8.70
2018-11-04T09:54:50.865Z,8.70
2018-11-04T09:57:19.146Z,8.80
2018-11-04T09:59:47.500Z,8.90
2018-11-04T10:02:15.801Z,9.00
2018-11-04T10:04:44.064Z,9.10
2018-11-04T10:07:12.373Z,9.20
2018-11-04T10:09:39.948Z,9.40
2018-11-04T10:12:08.246Z,9.50
2018-11-04T10:14:36.535Z,9.50
2018-11-04T10:17:04.860Z,9.70
2018-11-04T10:19:33.384Z,9.70
2018-11-04T10:22:01.509Z,9.90
2018-11-04T10:24:29.787Z,10.00
2018-11-04T10:26:58.090Z,10.00
2018-11-04T10:29:26.382Z,10.10
2018-11-04T10:31:54.722Z,10.10
2018-11-04T10:34:22.980Z,10.20
2018-11-04T10:36:51.247Z,10.20
2018-11-04T10:39:19.565Z,10.20
2018-11-04T10:41:47.882Z,10.20
2018-11-04T10:44:16.182Z,10.30
2018-11-04T10:46:44.497Z,10.30
2018-11-04T10:49:12.831Z,10.30
2018-11-04T10:51:41.062Z,10.30
2018-11-04T10:54:09.335Z,10.40
2018-11-04T10:56:37.652Z,10.40
2018-11-04T10:59:06.342Z,10.40
2018-11-04T11:01:34.643Z,10.40
2018-11-04T11:04:02.945Z,10.30
2018-11-04T11:06:31.226Z,10.30
2018-11-04T11:08:59.537Z,10.30
2018-11-04T11:11:27.949Z,10.40
2018-11-04T11:13:56.222Z,10.40
2018-11-04T11:16:24.522Z,10.50
2018-11-04T11:18:52.838Z,10.60
2018-11-04T11:21:21.146Z,10.60
2018-11-04T11:23:50.106Z,10.60
2018-11-04T11:26:18.435Z,10.70
2018-11-04T11:28:46.747Z,10.70
2018-11-04T11:31:15.114Z,10.80
2018-11-04T11:33:43.392Z,11.00
2018-11-04T11:36:11.657Z,11.00
2018-11-04T11:38:39.938Z,11.00
2018-11-04T11:41:08.360Z,11.10
2018-11-04T11:43:36.641Z,11.10
2018-11-04T11:46:05.130Z,11.10
2018-11-04T11:48:33.446Z,11.10
2018-11-04T11:51:02.205Z,11.10
2018-11-04T11:53:30.546Z,11.10
2018-11-04T11:55:58.866Z,11.20
2018-11-04T11:58:27.493Z,11.20
2018-11-04T12:00:55.754Z,11.20
2018-11-04T12:03:24.084Z,11.30
2018-11-04T12:05:52.374Z,11.30
2018-11-04T12:08:20.695Z,11.40
2018-11-04T12:10:48.978Z,11.40
2018-11-04T12:13:17.298Z,11.40
2018-11-04T12:15:45.589Z,11.30
2018-11-04T12:18:13.897Z,11.40
2018-11-04T12:20:42.205Z,11.40
2018-11-04T12:23:10.498Z,11.50
2018-11-04T12:25:38.769Z,11.50
2018-11-04T12:28:07.191Z,11.50
2018-11-04T12:30:35.483Z,11.60
2018-11-04T12:33:03.762Z,11.60
2018-11-04T12:35:32.063Z,11.60
2018-11-04T12:38:00.375Z,11.70
2018-11-04T12:40:28.715Z,11.70
2018-11-04T12:42:57.000Z,11.80
2018-11-04T12:45:25.304Z,11.80
2018-11-04T12:47:53.597Z,11.90
2018-11-04T12:50:21.892Z,11.90
2018-11-04T12:52:50.154Z,12.00
2018-11-04T12:55:18.460Z,12.10
2018-11-04T12:57:46.803Z,12.20
2018-11-04T13:00:16.206Z,12.20
2018-11-04T13:02:45.284Z,12.20
2018-11-04T13:05:13.536Z,12.30
2018-11-04T13:07:41.811Z,12.30
2018-11-04T13:10:11.768Z,12.40
2018-11-04T13:12:40.030Z,12.40
2018-11-04T13:15:09.747Z,12.30
2018-11-04T13:17:38.155Z,12.40
2018-11-04T13:20:06.709Z,12.40
2018-11-04T13:22:35.020Z,12.50
2018-11-04T13:25:03.313Z,12.40
2018-11-04T13:27:31.603Z,12.40
2018-11-04T13:29:59.894Z,12.50
2018-11-04T13:32:28.279Z,12.50
2018-11-04T13:34:56.674Z,12.50
2018-11-04T13:37:25.158Z,12.50
2018-11-04T13:39:53.467Z,12.50
2018-11-04T13:42:21.752Z,12.50
2018-11-04T13:44:50.048Z,12.60
2018-11-04T13:47:18.324Z,12.60
2018-11-04T13:49:46.615Z,12.70
2018-11-04T13:52:14.921Z,12.70
2018-11-04T13:54:43.232Z,12.70
2018-11-04T13:57:11.594Z,12.80
2018-11-04T13:59:39.962Z,12.80
2018-11-04T14:02:08.341Z,12.80
2018-11-04T14:04:36.629Z,12.80
2018-11-04T14:07:05.388Z,12.80
2018-11-04T14:09:33.712Z,12.80
2018-11-04T14:12:01.985Z,12.80
2018-11-04T14:14:30.268Z,12.80
2018-11-04T14:16:58.568Z,12.80
2018-11-04T14:19:26.822Z,12.80
2018-11-04T14:21:55.098Z,12.80
2018-11-04T14:24:23.408Z,12.80
2018-11-04T14:26:51.684Z,12.80
2018-11-04T14:29:19.972Z,12.80
2018-11-04T14:31:48.251Z,12.80
2018-11-04T14:34:16.644Z,12.80
2018-11-04T14:36:44.907Z,12.80
2018-11-04T14:39:13.240Z,12.80
2018-11-04T14:41:41.574Z,12.90
2018-11-04T14:44:09.856Z,13.00
2018-11-04T14:46:38.269Z,13.00
2018-11-04T14:49:06.581Z,13.10
2018-11-04T14:51:34.999Z,13.20
2018-11-04T14:54:03.353Z,13.20
2018-11-04T14:56:31.632Z,13.20
2018-11-04T14:58:59.998Z,13.20
2018-11-04T15:01:28.427Z,13.20
2018-11-04T15:03:56.672Z,13.10
2018-11-04T15:06:25.359Z,13.10
2018-11-04T15:08:53.843Z,13.00
2018-11-04T15:11:22.337Z,12.90
2018-11-04T15:13:50.603Z,12.90
2018-11-04T15:16:19.008Z,12.80
2018-11-04T15:18:47.401Z,12.70
2018-11-04T15:21:15.759Z,12.60
2018-11-04T15:23:44.076Z,12.60
2018-11-04T15:26:12.368Z,12.50
2018-11-04T15:28:41.702Z,12.30
2018-11-04T15:31:10.012Z,12.20
2018-11-04T15:33:38.429Z,12.10
2018-11-04T15:36:07.341Z,12.00
2018-11-04T15:38:35.653Z,12.00
2018-11-04T15:41:03.930Z,11.90
2018-11-04T15:43:32.232Z,11.80
2018-11-04T15:46:00.697Z,11.70
2018-11-04T15:48:29.138Z,11.70
2018-11-04T15:50:57.464Z,11.60
2018-11-04T15:53:25.867Z,11.60
2018-11-04T15:55:54.241Z,11.60
2018-11-04T15:58:22.616Z,11.60
2018-11-04T16:00:51.089Z,11.50
2018-11-04T16:03:19.450Z,11.50
2018-11-04T16:05:47.828Z,11.50
2018-11-04T16:08:16.220Z,11.50
2018-11-04T16:10:44.661Z,11.50
2018-11-04T16:13:12.989Z,11.50
2018-11-04T16:15:41.590Z,11.50
2018-11-04T16:18:10.282Z,11.40
2018-11-04T16:20:38.656Z,11.40
2018-11-04T16:23:07.094Z,11.40
2018-11-04T16:25:35.456Z,11.40
2018-11-04T16:28:03.772Z,11.40
2018-11-04T16:30:32.080Z,11.40
2018-11-04T16:33:00.447Z,11.40
2018-11-04T16:35:28.774Z,11.40
2018-11-04T16:37:57.237Z,11.40
2018-11-04T16:40:25.510Z,11.40
2018-11-04T16:42:53.847Z,11.40
2018-11-04T16:45:22.227Z,11.40
2018-11-04T16:47:50.664Z,11.40
2018-11-04T16:50:18.981Z,11.40
2018-11-04T16:52:47.635Z,11.40
2018-11-04T16:55:16.035Z,11.40
2018-11-04T16:57:44.721Z,11.40
2018-11-04T17:00:13.574Z,11.40
2018-11-04T17:02:41.986Z,11.40
2018-11-04T17:05:12.247Z,11.40
2018-11-04T17:07:40.761Z,11.40
2018-11-04T17:10:09.345Z,11.40
2018-11-04T17:12:37.702Z,11.30
2018-11-04T17:15:08.794Z,11.30
2018-11-04T17:17:37.129Z,11.30
2018-11-04T17:20:09.472Z,11.30
2018-11-04T17:22:37.863Z,11.30
2018-11-04T17:25:06.900Z,11.30
2018-11-04T17:27:35.251Z,11.30
2018-11-04T17:30:05.003Z,11.30
2018-11-04T17:32:33.297Z,11.30
2018-11-04T17:35:01.606Z,11.30
2018-11-04T17:37:30.066Z,11.30
2018-11-04T17:39:58.407Z,11.30
2018-11-04T17:42:26.863Z,11.30
2018-11-04T17:44:55.163Z,11.30
2018-11-04T17:47:23.495Z,11.20
2018-11-04T17:49:51.805Z,11.20
2018-11-04T17:52:20.142Z,11.20
2018-11-04T17:54:48.537Z,11.20
2018-11-04T17:57:16.850Z,11.20
2018-11-04T17:59:46.547Z,11.20
2018-11-04T18:02:15.057Z,11.20
2018-11-04T18:04:43.354Z,11.20
2018-11-04T18:07:11.738Z,11.20
2018-11-04T18:09:40.036Z,11.20
2018-11-04T18:12:08.562Z,11.10
2018-11-04T18:14:37.391Z,11.10
2018-11-04T18:17:05.882Z,11.20
2018-11-04T18:19:34.313Z,11.10
2018-11-04T18:22:02.650Z,11.10
2018-11-04T18:24:31.008Z,11.10
2018-11-04T18:26:59.437Z,11.10
2018-11-04T18:29:27.680Z,11.10
2018-11-04T18:31:56.115Z,11.10
2018-11-04T18:34:25.191Z,11.10
2018-11-04T18:36:53.500Z,11.10
2018-11-04T18:39:21.826Z,11.10
2018-11-04T18:41:50.128Z,11.20
2018-11-04T18:44:18.521Z,11.20
2018-11-04T18:46:46.766Z,11.20
2018-11-04T18:49:15.122Z,11.20
2018-11-04T18:51:43.448Z,11.10
2018-11-04T18:54:11.893Z,11.10
2018-11-04T18:56:40.217Z,11.20
2018-11-04T18:59:08.678Z,11.20
2018-11-04T19:01:36.983Z,11.20
2018-11-04T19:04:05.320Z,11.20
2018-11-04T19:06:33.612Z,11.10
2018-11-04T19:09:02.057Z,11.10
2018-11-04T19:11:30.354Z,11.10
2018-11-04T19:13:58.590Z,11.10
2018-11-04T19:16:26.929Z,11.10
2018-11-04T19:18:55.255Z,11.00
2018-11-04T19:21:23.515Z,11.00
2018-11-04T19:23:51.874Z,11.00
2018-11-04T19:26:20.237Z,10.90
2018-11-04T19:28:51.703Z,10.90
2018-11-04T19:31:23.643Z,10.90
2018-11-04T19:33:52.353Z,10.90
2018-11-04T19:36:20.685Z,10.90
2018-11-04T19:38:52.931Z,10.90
2018-11-04T19:41:22.843Z,11.00
2018-11-04T19:43:51.268Z,11.00
2018-11-04T19:46:19.627Z,11.00
2018-11-04T19:48:48.059Z,11.00
2018-11-04T19:51:16.420Z,10.90
2018-11-04T19:53:44.703Z,10.90
2018-11-04T19:56:12.945Z,10.90
2018-11-04T19:58:41.308Z,10.90
2018-11-04T20:01:10.105Z,10.80
2018-11-04T20:03:38.459Z,10.80
2018-11-04T20:06:07.041Z,10.80
2018-11-04T20:08:35.306Z,10.80
2018-11-04T20:11:03.616Z,10.70
2018-11-04T20:13:37.350Z,10.70
2018-11-04T20:16:05.579Z,10.70
2018-11-04T20:18:39.176Z,10.70
2018-11-04T20:21:07.587Z,10.70
2018-11-04T20:23:35.881Z,10.70
2018-11-04T20:26:06.272Z,10.70
2018-11-04T20:28:34.550Z,10.60
2018-11-04T20:31:02.848Z,10.60
2018-11-04T20:33:31.162Z,10.50
2018-11-04T20:35:59.706Z,10.50
2018-11-04T20:38:33.388Z,10.50
2018-11-04T20:41:07.183Z,10.40
2018-11-04T20:43:35.544Z,10.30
2018-11-04T20:46:03.825Z,10.30
2018-11-04T20:48:37.540Z,10.20
2018-11-04T20:51:07.284Z,10.20
2018-11-04T20:56:24.926Z,10.00
2018-11-04T20:58:53.187Z,9.90
2018-11-04T21:01:21.395Z,9.90
2018-11-04T21:03:49.651Z,9.80
2018-11-04T21:06:17.808Z,9.70
2018-11-04T21:08:46.043Z,9.60
2018-11-04T21:11:14.275Z,9.50
2018-11-04T21:13:42.518Z,9.50
2018-11-04T21:16:10.875Z,9.50
2018-11-04T21:18:38.991Z,9.40
2018-11-04T21:21:07.449Z,9.40
2018-11-04T21:23:35.636Z,9.30
2018-11-04T21:26:03.876Z,9.30
2018-11-04T21:28:32.277Z,9.20
2018-11-04T21:31:00.468Z,9.20
2018-11-04T21:33:28.763Z,9.20
2018-11-04T21:35:56.966Z,9.10
2018-11-04T21:38:25.226Z,9.10
2018-11-04T21:40:53.451Z,9.00
2018-11-04T21:43:21.833Z,9.00
2018-11-04T21:45:49.853Z,8.90
2018-11-04T21:48:18.090Z,8.90
2018-11-04T21:50:46.302Z,8.80
2018-11-04T21:53:14.539Z,8.80
2018-11-04T21:55:42.904Z,8.80
2018-11-04T21:58:11.452Z,8.70
2018-11-04T22:00:39.850Z,8.70
2018-11-04T22:03:08.166Z,8.60
2018-11-04T22:05:36.355Z,8.60
2018-11-04T22:08:04.583Z,8.60
2018-11-04T22:10:32.933Z,8.50
2018-11-04T22:13:01.074Z,8.50
2018-11-04T22:15:29.290Z,8.50
2018-11-04T22:17:57.519Z,8.40
2018-11-04T22:20:25.734Z,8.40
2018-11-04T22:22:53.947Z,8.40
2018-11-04T22:25:22.235Z,8.40
2018-11-04T22:27:50.927Z,8.30
2018-11-04T22:30:19.234Z,8.30
2018-11-04T22:32:47.515Z,8.30
2018-11-04T22:35:15.727Z,8.20
2018-11-04T22:37:43.959Z,8.20
2018-11-04T22:40:12.555Z,8.20
2018-11-04T22:42:41.542Z,8.10
2018-11-04T22:45:10.980Z,8.10
2018-11-04T22:47:39.686Z,8.00
2018-11-04T22:50:09.810Z,8.00
2018-11-04T22:52:38.346Z,8.00
2018-11-04T22:55:06.731Z,7.90
2018-11-04T22:57:34.971Z,7.90
2018-11-04T23:00:03.200Z,7.90
2018-11-04T23:02:31.455Z,7.90
2018-11-04T23:05:05.016Z,7.90
2018-11-04T23:07:33.350Z,7.80
2018-11-04T23:10:01.591Z,7.80
2018-11-04T23:12:29.883Z,7.80
2018-11-04T23:14:58.115Z,7.80
2018-11-04T23:17:26.419Z,7.80
2018-11-04T23:19:54.643Z,7.70
2018-11-04T23:22:22.874Z,7.70
2018-11-04T23:24:51.094Z,7.70
2018-11-04T23:27:19.295Z,7.70
2018-11-04T23:29:47.612Z,7.70
2018-11-04T23:32:15.809Z,7.70
2018-11-04T23:34:44.015Z,7.70
2018-11-04T23:37:12.211Z,7.70
2018-11-04T23:39:40.445Z,7.60
2018-11-04T23:42:08.751Z,7.60
2018-11-04T23:44:36.962Z,7.60
2018-11-04T23:47:05.519Z,7.60
2018-11-04T23:49:33.755Z,7.60
2018-11-04T23:52:01.931Z,7.60
2018-11-04T23:54:30.143Z,7.60
2018-11-04T23:56:58.342Z,7.60
2018-11-04T23:59:26.548Z,7.60
